createdAt,value
2019-03-10T00:01:34.198Z,97137.16
2019-03-10T00:04:07.108Z,97126.80
2019-03-10T00:06:38.090Z,97130.30
2019-03-10T00:09:09.723Z,97122.08
2019-03-10T00:11:40.431Z,97127.98
2019-03-10T00:14:11.522Z,97120.14
2019-03-10T00:16:42.178Z,97120.98
2019-03-10T00:19:13.896Z,97124.31
2019-03-10T00:21:44.658Z,97126.27
2019-03-10T00:24:15.449Z,97126.33
2019-03-10T00:26:45.884Z,97113.88
2019-03-10T00:29:16.379Z,97172.19
2019-03-10T00:31:46.853Z,97168.45
2019-03-10T00:34:17.485Z,97357.30
2019-03-10T09:24:58.016Z,97467.72
2019-03-10T09:47:08.213Z,97467.72
2019-03-10T09:50:04.111Z,97467.72
2019-03-10T09:53:00.829Z,97564.48
2019-03-10T09:55:45.903Z,97546.70
2019-03-10T09:58:34.869Z,97560.13
2019-03-10T10:01:38.042Z,97568.06
2019-03-10T10:04:30.388Z,97570.13
2019-03-10T10:07:34.897Z,97561.08
2019-03-10T10:10:27.715Z,97541.39
2019-03-10T10:13:16.501Z,97525.57
2019-03-10T10:16:03.379Z,97531.23
2019-03-10T10:18:48.513Z,97523.09
2019-03-10T10:21:40.961Z,97529.45
2019-03-10T10:24:30.528Z,97512.27
2019-03-10T10:27:13.640Z,97516.62
2019-03-10T10:30:01.944Z,97502.86
2019-03-10T10:32:39.575Z,97514.16
2019-03-10T10:35:27.795Z,97502.13
2019-03-10T10:38:18.917Z,97506.80
2019-03-10T10:41:10.446Z,97505.11
2019-03-10T10:44:08.171Z,97505.64
2019-03-10T10:47:09.692Z,97495.44
2019-03-10T10:50:02.228Z,97506.84
2019-03-10T10:52:50.099Z,97510.41
2019-03-10T10:55:41.362Z,97519.16
2019-03-10T10:58:39.212Z,97510.19
2019-03-10T11:01:28.576Z,97511.62
2019-03-10T11:04:24.907Z,97510.39
2019-03-10T11:07:16.654Z,97492.90
2019-03-10T11:09:56.914Z,97490.53
2019-03-10T11:12:55.345Z,97487.25
2019-03-10T11:15:48.119Z,97484.72
2019-03-10T11:18:36.050Z,97459.83
2019-03-10T11:21:15.815Z,97464.56
2019-03-10T11:24:14.494Z,97461.03
2019-03-10T11:27:06.567Z,97468.82
2019-03-10T11:29:45.734Z,97433.52
2019-03-10T11:32:24.844Z,97466.80
2019-03-10T11:35:05.741Z,97425.59
2019-03-10T11:38:04.699Z,97455.84
2019-03-10T11:41:12.451Z,97420.53
2019-03-10T11:43:51.926Z,97416.79
2019-03-10T11:46:33.420Z,97425.95
2019-03-10T11:49:28.940Z,97370.66
2019-03-10T11:52:10.757Z,97379.18
2019-03-10T11:55:06.431Z,97372.09
2019-03-10T11:57:45.117Z,97359.17
2019-03-10T12:00:25.823Z,97381.25
2019-03-10T12:03:15.762Z,97352.39
2019-03-10T12:06:08.054Z,97353.77
2019-03-10T12:09:12.776Z,97347.89
2019-03-10T12:11:43.239Z,97352.66
2019-03-10T12:14:14.223Z,97334.20
2019-03-10T12:17:16.036Z,97322.22
2019-03-10T12:19:51.633Z,97328.92
2019-03-10T12:22:24.409Z,97323.92
2019-03-10T12:24:57.804Z,97329.80
2019-03-10T12:27:29.645Z,97315.98
2019-03-10T12:30:02.519Z,97317.17
2019-03-10T12:32:34.263Z,97318.68
2019-03-10T12:35:06.553Z,97315.97
2019-03-10T12:37:38.411Z,97304.70
2019-03-10T12:40:10.614Z,97307.73
2019-03-10T12:42:42.337Z,97302.91
2019-03-10T12:45:14.322Z,97306.00
2019-03-10T12:47:46.018Z,97322.91
2019-03-10T12:50:18.865Z,97309.58
2019-03-10T12:52:50.559Z,97300.92
2019-03-10T12:55:22.899Z,97288.55
2019-03-10T12:57:54.601Z,97290.78
2019-03-10T13:00:26.632Z,97290.16
2019-03-10T13:02:58.282Z,97291.17
2019-03-10T13:05:29.922Z,97283.23
2019-03-10T13:08:01.620Z,97279.56
2019-03-10T13:10:33.240Z,97279.06
2019-03-10T13:13:06.146Z,97279.31
2019-03-10T13:15:37.903Z,97275.41
2019-03-10T13:18:09.775Z,97264.68
2019-03-10T13:20:41.451Z,97250.59
2019-03-10T13:23:13.213Z,97259.09
2019-03-10T13:25:45.038Z,97257.67
2019-03-10T13:28:17.130Z,97252.17
2019-03-10T13:30:49.095Z,97245.41
2019-03-10T13:33:20.917Z,97225.88
2019-03-10T13:35:52.555Z,97219.00
2019-03-10T13:38:24.354Z,97238.77
2019-03-10T13:40:56.091Z,97234.83
2019-03-10T13:43:27.737Z,97229.00
2019-03-10T13:45:59.548Z,97217.39
2019-03-10T13:48:31.310Z,97213.63
2019-03-10T13:51:03.293Z,97212.70
2019-03-10T13:53:35.023Z,97211.59
2019-03-10T13:56:06.807Z,97213.09
2019-03-10T13:58:38.678Z,97206.63
2019-03-10T14:01:10.534Z,97180.73
2019-03-10T14:03:42.672Z,97175.81
2019-03-10T14:06:14.576Z,97163.11
2019-03-10T14:08:46.328Z,97153.75
2019-03-10T14:11:17.994Z,97139.28
2019-03-10T14:13:49.727Z,97126.16
2019-03-10T14:16:21.601Z,97109.52
2019-03-10T14:18:53.309Z,97104.06
2019-03-10T14:21:25.080Z,97099.03
2019-03-10T14:23:56.845Z,97088.32
2019-03-10T14:26:28.623Z,97074.89
2019-03-10T14:29:00.334Z,97066.37
2019-03-10T14:31:32.093Z,97056.58
2019-03-10T14:34:03.829Z,97035.27
2019-03-10T14:36:35.632Z,97014.95
2019-03-10T14:39:08.835Z,97014.95
2019-03-10T14:41:40.822Z,97008.88
2019-03-10T14:44:12.414Z,97006.80
2019-03-10T14:46:48.119Z,97000.16
2019-03-10T14:49:23.480Z,96985.70
2019-03-10T14:51:53.582Z,96977.49
2019-03-10T14:54:25.747Z,96968.06
2019-03-10T14:56:57.359Z,96967.39
2019-03-10T14:59:29.054Z,96957.97
2019-03-10T15:02:00.704Z,96955.33
2019-03-10T15:04:32.471Z,96945.11
2019-03-10T15:07:04.267Z,96929.97
2019-03-10T15:09:35.942Z,96929.97
2019-03-10T15:12:07.731Z,96924.08
2019-03-10T15:14:39.357Z,96914.58
2019-03-10T15:17:11.086Z,96909.45
2019-03-10T15:19:43.695Z,96895.78
2019-03-10T15:22:15.326Z,96896.63
2019-03-10T15:24:47.199Z,96889.11
2019-03-10T15:27:23.343Z,96876.16
2019-03-10T15:29:52.287Z,96861.36
2019-03-10T15:32:23.938Z,96854.13
2019-03-10T15:34:55.717Z,96849.00
2019-03-10T15:37:27.327Z,96838.78
2019-03-10T15:39:58.978Z,96827.75
2019-03-10T15:42:30.741Z,96817.42
2019-03-10T15:45:02.530Z,96812.32
2019-03-10T15:47:35.207Z,96796.17
2019-03-10T15:50:10.913Z,96782.96
2019-03-10T15:52:42.542Z,96782.96
2019-03-10T15:55:14.457Z,96767.57
2019-03-10T15:57:50.651Z,96760.84
2019-03-10T16:00:20.571Z,96758.44
2019-03-10T16:02:52.389Z,96749.00
2019-03-10T16:05:24.120Z,96745.50
2019-03-10T16:07:55.854Z,96756.80
2019-03-10T16:10:27.436Z,96750.62
2019-03-10T16:12:59.187Z,96745.77
2019-03-10T16:15:30.857Z,96742.80
2019-03-10T16:18:02.827Z,96733.12
2019-03-10T16:20:34.779Z,96725.00
2019-03-10T16:23:06.929Z,96722.86
2019-03-10T16:25:38.654Z,96726.09
2019-03-10T16:28:10.573Z,96716.91
2019-03-10T16:30:42.284Z,96722.59
2019-03-10T16:33:14.441Z,96717.21
2019-03-10T16:35:46.245Z,96718.31
2019-03-10T16:38:18.097Z,96715.34
2019-03-10T16:40:50.092Z,96708.36
2019-03-10T16:43:22.023Z,96701.34
2019-03-10T16:45:53.677Z,96694.36
2019-03-10T16:48:26.012Z,96675.50
2019-03-10T16:50:57.874Z,96662.03
2019-03-10T16:53:29.502Z,96671.98
2019-03-10T16:56:03.120Z,96651.24
2019-03-10T16:58:34.637Z,96648.50
2019-03-10T17:01:07.465Z,96651.48
2019-03-10T17:03:39.326Z,96640.19
2019-03-10T17:06:11.461Z,96634.50
2019-03-10T17:08:43.219Z,96618.88
2019-03-10T17:11:16.352Z,96611.61
2019-03-10T17:13:48.006Z,96591.97
2019-03-10T17:16:20.885Z,96583.06
2019-03-10T17:18:52.475Z,96568.25
2019-03-10T17:21:24.252Z,96550.70
2019-03-10T17:23:56.052Z,96567.43
2019-03-10T17:26:28.876Z,96569.03
2019-03-10T17:29:01.180Z,96571.72
2019-03-10T17:31:32.829Z,96584.38
2019-03-10T17:34:04.587Z,96566.90
2019-03-10T17:36:36.335Z,96544.78
2019-03-10T17:39:08.433Z,96581.16
2019-03-10T17:41:40.195Z,96580.91
2019-03-10T17:44:12.923Z,96593.84
2019-03-10T17:46:44.808Z,96597.08
2019-03-10T17:49:16.481Z,96593.56
2019-03-10T17:51:48.554Z,96600.88
2019-03-10T17:54:20.214Z,96600.34
2019-03-10T17:56:51.914Z,96606.26
2019-03-10T17:59:23.787Z,96597.39
2019-03-10T18:01:55.407Z,96598.73
2019-03-10T18:04:27.121Z,96590.91
2019-03-10T18:06:58.781Z,96589.02
2019-03-10T18:09:30.731Z,96561.53
2019-03-10T18:12:02.719Z,96556.97
2019-03-10T18:14:34.442Z,96528.66
2019-03-10T18:17:06.063Z,96511.11
2019-03-10T18:19:37.762Z,96457.98
2019-03-10T18:22:09.357Z,96436.14
2019-03-10T18:24:48.570Z,96455.55
2019-03-10T18:27:20.260Z,96479.55
2019-03-10T18:29:53.719Z,96491.41
2019-03-10T18:32:25.456Z,96509.45
2019-03-10T18:34:57.099Z,96538.02
2019-03-10T18:37:32.831Z,96542.35
2019-03-10T18:40:03.204Z,96536.95
2019-03-10T18:42:35.169Z,96525.06
2019-03-10T18:45:07.648Z,96513.47
2019-03-10T18:47:39.618Z,96510.48
2019-03-10T18:50:12.507Z,96512.90
2019-03-10T18:52:44.195Z,96519.64
2019-03-10T18:55:16.703Z,96513.97
2019-03-10T18:57:49.486Z,96492.59
2019-03-10T19:00:22.611Z,96512.27
2019-03-10T19:02:54.192Z,96494.14
2019-03-10T19:05:26.055Z,96500.61
2019-03-10T19:07:57.898Z,96498.96
2019-03-10T19:10:29.516Z,96497.89
2019-03-10T19:13:01.202Z,96509.50
2019-03-10T19:15:32.909Z,96508.97
2019-03-10T19:18:04.505Z,96506.55
2019-03-10T19:20:36.264Z,96528.70
2019-03-10T19:23:07.982Z,96506.28
2019-03-10T19:25:39.959Z,96505.22
2019-03-10T19:28:11.852Z,96502.56
2019-03-10T19:30:43.812Z,96519.08
2019-03-10T19:33:15.601Z,96511.78
2019-03-10T19:35:47.338Z,96516.13
2019-03-10T19:38:19.244Z,96521.53
2019-03-10T19:40:51.117Z,96523.94
2019-03-10T19:43:22.935Z,96517.98
2019-03-10T19:45:55.050Z,96525.01
2019-03-10T19:48:27.112Z,96537.45
2019-03-10T19:50:58.868Z,96536.34
2019-03-10T19:53:30.634Z,96538.50
2019-03-10T19:56:04.128Z,96543.91
2019-03-10T19:58:37.013Z,96546.63
2019-03-10T20:01:08.857Z,96549.58
2019-03-10T20:03:40.596Z,96547.42
2019-03-10T20:06:12.553Z,96552.31
2019-03-10T20:08:44.962Z,96553.40
2019-03-10T20:11:16.758Z,96561.21
2019-03-10T20:13:48.607Z,96573.12
2019-03-10T20:16:20.402Z,96572.02
2019-03-10T20:18:52.259Z,96572.03
2019-03-10T20:21:24.321Z,96567.44
2019-03-10T20:23:56.042Z,96565.27
2019-03-10T20:26:27.846Z,96551.52
2019-03-10T20:29:00.129Z,96535.31
2019-03-10T20:31:31.887Z,96538.01
2019-03-10T20:34:03.842Z,96567.98
2019-03-10T20:36:37.942Z,96558.54
2019-03-10T20:39:10.965Z,96555.56
2019-03-10T20:41:43.256Z,96550.44
2019-03-10T20:44:15.155Z,96562.02
2019-03-10T20:46:47.340Z,96559.59
2019-03-10T20:49:19.240Z,96548.78
2019-03-10T20:51:51.178Z,96559.57
2019-03-10T20:54:23.015Z,96547.17
2019-03-10T20:56:56.344Z,96552.02
2019-03-10T20:59:30.042Z,96554.98
2019-03-10T21:02:03.511Z,96558.23
2019-03-10T21:04:35.959Z,96562.55
2019-03-10T21:07:10.125Z,96566.30
2019-03-10T21:09:44.598Z,96564.69
2019-03-10T21:12:18.066Z,96592.49
2019-03-10T21:14:50.880Z,96576.54
2019-03-10T21:17:23.018Z,96597.89
2019-03-10T21:19:55.085Z,96616.00
2019-03-10T21:22:28.781Z,96634.08
2019-03-10T21:25:03.067Z,96634.08
2019-03-10T21:27:35.190Z,96642.98
2019-03-10T21:30:13.326Z,96641.11
2019-03-10T21:32:45.796Z,96646.48
2019-03-10T21:35:18.617Z,96642.70
2019-03-10T21:37:52.009Z,96643.24
2019-03-10T21:40:25.143Z,96656.73
2019-03-10T21:42:56.915Z,96654.56
2019-03-10T21:45:28.557Z,96654.31
2019-03-10T21:48:00.412Z,96661.06
2019-03-10T21:50:32.360Z,96665.36
2019-03-10T21:53:04.156Z,96686.92
2019-03-10T21:55:35.940Z,96677.20
2019-03-10T21:58:07.789Z,96721.63
2019-03-10T22:00:39.530Z,96640.48
2019-03-10T22:03:12.484Z,96647.22
2019-03-10T22:05:44.292Z,96630.80
2019-03-10T22:08:16.192Z,96635.09
2019-03-10T22:10:47.972Z,96643.47
2019-03-10T22:13:19.577Z,96640.80
2019-03-10T22:15:51.196Z,96645.66
2019-03-10T22:18:23.023Z,96629.48
2019-03-10T22:20:54.721Z,96625.44
2019-03-10T22:23:26.453Z,96621.95
2019-03-10T22:25:58.150Z,96630.86
2019-03-10T22:28:30.108Z,96625.17
2019-03-10T22:31:01.832Z,96631.66
2019-03-10T22:33:33.558Z,96631.66
2019-03-10T22:36:06.113Z,96626.81
2019-03-10T22:38:37.687Z,96651.09
2019-03-10T22:41:10.963Z,96630.57
2019-03-10T22:43:42.701Z,96623.84
2019-03-10T22:46:16.909Z,96623.56
2019-03-10T22:48:48.842Z,96621.12
2019-03-10T22:51:22.216Z,96649.19
2019-03-10T22:53:54.366Z,96631.11
2019-03-10T22:56:26.279Z,96633.56
2019-03-10T22:58:58.061Z,96656.73
2019-03-10T23:01:30.147Z,96655.92
2019-03-10T23:04:03.041Z,96640.55
2019-03-10T23:06:35.195Z,96618.69
2019-03-10T23:09:08.349Z,96635.97
2019-03-10T23:11:41.844Z,96629.77
2019-03-10T23:14:15.542Z,96635.95
2019-03-10T23:16:47.698Z,96609.79
2019-03-10T23:19:19.487Z,96626.00
2019-03-10T23:21:51.077Z,96621.41
2019-03-10T23:24:24.383Z,96638.42
2019-03-10T23:26:56.158Z,96680.49
2019-03-10T23:29:28.712Z,96645.14
2019-03-10T23:32:00.656Z,96616.81
2019-03-10T23:34:32.348Z,96620.61
2019-03-10T23:37:05.089Z,96617.64
2019-03-10T23:39:37.011Z,96638.94
2019-03-10T23:42:08.695Z,96626.80
2019-03-10T23:44:41.613Z,96633.83
2019-03-10T23:47:13.900Z,96623.58
2019-03-10T23:49:45.800Z,96616.27
2019-03-10T23:52:18.107Z,96630.03
2019-03-10T23:54:49.942Z,96652.15
2019-03-10T23:57:21.605Z,96627.88
2019-03-10T23:59:53.399Z,96597.94
